Terminal Aerodrome Forecast
Issued by NWS

Home | Current Version | Previous Version | Text Only | Print | Product List | Glossary On
Versions: 1 2 3 4 5 6 7 8 9 10 11 12
000
FTUS44 KOUN 282320
TAFHBR
TAF
KHBR 282320Z 2900/2924 12009KT P6SM VCTS SCT060CB SCT250
      TEMPO 2900/2902 VRB15G25KT 5SM TSRA BKN040CB
     FM290300 15006KT P6SM SCT050 BKN120 BKN250
     FM291000 10005KT P6SM SCT120 SCT250=

USA.gov is the U.S. government's official web portal to all federal, state and local government web resources and services.